x

Halibut Bank (46146) Wave Buoy

11:00pm - Mon 5th Dec 2016 All times are PST. -8 hours from GMT.

  • Sig Wave height 1.6ft
  • Peak Period 4s
  • Wind
    9mph, 13mph gusts
  • Sea Temp 47°f
  • 空気 Temp 39°f
  • Sea Pressure 1018.3mb
  • Halibut Bank
  • Halibut Bank

More Historic Weather Station data

Upgrade to MSW Pro to gain access to the past 30 days of data for over 8000 Wavebouys and Weather Stations around the globe.

Join Pro

Comparision Forecast

View Surf forecast
   
Mon 12/05 11:00pm 1.6ft 4s 9 13 mph 1018.3mb 47f 39f
10:00pm 1.3ft 3s 13 18 mph 1017.9mb 47f 40f
9:00pm 1.3ft 3s 16 20 mph 1017.5mb 47f 40f
8:00pm 1.3ft 3s 13 20 mph 1017.3mb 47f 39f
7:00pm 1.6ft 3s 16 22 mph 1017.1mb 47f 39f
6:00pm 1.6ft 3s 18 22 mph 1016.7mb 47f 38f
5:00pm 1.6ft 4s 18 20 mph 1016.5mb 48f 38f
4:00pm 1.6ft 4s 16 18 mph 1016.3mb 48f 38f
3:00pm 2ft 4s 16 18 mph 1016.2mb 48f 38f
2:00pm 2ft 4s 16 20 mph 1016.1mb 48f 38f
1:00pm 2.5ft 5s 18 20 mph 1016.1mb 48f 37f
12:00pm 2ft 4s 18 22 mph 1016.3mb 48f 37f
11:00am 2ft 3s 20 22 mph 1016.2mb 48f 37f
10:00am 2ft 4s 20 25 mph 1016.2mb 48f 37f
9:00am 2.5ft 4s 22 25 mph 1015.9mb 47f 37f
8:00am 2.5ft 4s 20 22 mph 1016.4mb 48f 35f
7:00am 2.5ft 4s 22 25 mph 1016.8mb 48f 35f
6:00am 2.5ft 4s 22 27 mph 1016.9mb 48f 37f
5:00am 2.5ft 3s 22 27 mph 1017mb 48f 39f
4:00am 2ft 3s 22 27 mph 1017.4mb 48f 40f
3:00am 1.6ft 3s 20 22 mph 1018mb 48f 40f
2:00am 1.3ft 3s 18 22 mph 1018.4mb 48f 40f
1:00am 1ft 3s 18 20 mph 1018.6mb 48f 40f
12:00am 1ft 3s 16 18 mph 1019mb 48f 40f
Sun 12/04 11:00pm 0.7ft 2s 9 11 mph 1019.1mb 48f 41f
10:00pm 0.7ft 2s 4
mph
1019.1mb 48f 41f
9:00pm 1ft 3s 7 9 mph 1018.8mb 48f 40f
8:00pm 1.3ft 4s 7
mph
1018.3mb 48f 41f
7:00pm 1.6ft 4s 7 9 mph 1018.2mb 48f 42f
6:00pm 1.6ft 4s 11 16 mph 1018.2mb 48f 43f
5:00pm 2.5ft 4s 13 18 mph 1017.8mb 48f 43f
4:00pm 2.5ft 4s 18 22 mph 1017.3mb 48f 44f
3:00pm 3ft 4s 22 25 mph 1016.8mb 48f 44f
2:00pm 3.5ft 5s 25 29 mph 1016.4mb 48f 44f
1:00pm 4ft 4s 27 29 mph 1016.5mb 48f 43f
12:00pm 3.5ft 4s 25 27 mph 1016.8mb 48f 42f
11:00am 4ft 4s 27 31 mph 1016.4mb 48f 42f
10:00am 4.5ft 5s 29 40 mph 1015.9mb 48f 42f
9:00am 4.5ft 4s 31 36 mph 1014.8mb 48f 42f
8:00am 4ft 4s 29 36 mph 1014.6mb 48f 42f
7:00am 3.5ft 4s 29 36 mph 1014.1mb 48f 42f
6:00am 3ft 4s 27 31 mph 1014.7mb 48f 42f
5:00am 2.5ft 4s 25 29 mph 1014.9mb 48f 42f
4:00am 2.5ft 4s 20 25 mph 1015.1mb 48f 40f
3:00am 1ft 4s 27 31 mph 1014.9mb 48f 43f
2:00am 1ft 4s 11 18 mph 1015.3mb 48f 44f
1:00am 1ft 4s 13 18 mph 1015.4mb 48f 44f
12:00am 1.3ft 3s 13 16 mph 1015.8mb 48f 44f
Sat 12/03 11:00pm 0.7ft 2s 13 18 mph 1016mb 48f 43f
10:00pm 0.7ft 2s 9 11 mph 1016.2mb 48f 47f
9:00pm 1ft 2s 9
mph
1016.3mb 48f 47f
8:00pm 1ft 2s 9
mph
1016.8mb 48f 47f
7:00pm 1ft 3s 11 13 mph 1017.4mb 48f 47f
6:00pm 0.7ft 4s 7 9 mph 1018.3mb 47f 47f
5:00pm 1ft 3s 11 13 mph 1019.1mb 48f 46f
4:00pm 0.7ft 3s 9 11 mph 1020mb 48f 47f
3:00pm 1ft 2s 9 11 mph 1020.2mb 48f 47f
2:00pm 0.7ft 3s 9 11 mph 1021.1mb 47f 47f
1:00pm 0.7ft 3s 9 11 mph 1021.9mb 47f 47f
12:00pm 1ft 3s 9 11 mph 1022.1mb 47f 47f
11:00am 1ft 3s 11 13 mph 1022.2mb 47f 47f
10:00am 1ft 3s 16 18 mph 1022mb 47f 46f
9:00am 1ft 2s 16 18 mph 1021.8mb 47f 45f
8:00am 0.7ft 6s 13 18 mph 1021.8mb 48f 45f
7:00am 0.7ft 3s 9
mph
1022.1mb 48f 47f
6:00am 0.7ft 3s 4 7 mph 1021.9mb 48f 47f
5:00am 1.3ft 4s  -  mph 1022.1mb 48f 46f
4:00am 1.3ft 4s 4 7 mph 1021.9mb 48f 46f
3:00am 1.3ft 4s 4
mph
1021.8mb 48f 45f
2:00am 1.6ft 4s 7 9 mph 1021.1mb 48f 48f
1:00am 1.6ft 4s 13 18 mph 1020.5mb 48f 49f
12:00am 1.3ft 3s 16 18 mph 1020.3mb 48f 48f
Fri 12/02 11:00pm 0.7ft 4s 18 22 mph 1019.2mb 48f 49f
10:00pm 0.7ft 4s 11 13 mph 1018.4mb 48f 49f
9:00pm 0.7ft 4s 2 4 mph 1017.8mb 48f 47f
8:00pm 1ft 5s 4 7 mph 1017.2mb 49f 48f
7:00pm 1.6ft 4s 7 9 mph 1016.3mb 49f 48f
6:00pm 2ft 4s 11 13 mph 1016.1mb 49f 48f
5:00pm 3ft 4s 11 18 mph 1015.8mb 49f 48f
4:00pm 3.5ft 4s 20 25 mph 1015.7mb 49f 48f
3:00pm 4ft 5s 18 22 mph 1016mb 49f 47f
2:00pm 4.5ft 5s 20 27 mph 1016.5mb 49f 47f
1:00pm 4.5ft 4s 29 36 mph 1015.6mb 49f 47f
12:00pm 4.5ft 5s 29 36 mph 1016.7mb 49f 47f
11:00am 5ft 4s 29 36 mph 1017.7mb 49f 46f
10:00am 4.5ft 4s 29 38 mph 1018.2mb 49f 46f
9:00am 4.5ft 4s 29 36 mph 1019.5mb 48f 46f